Time;durP1;ratioP1;P1;durP2;ratioP2;P2;SDS_P1;SDS_P2;PMS_P1;PMS_P2;Temp;Humidity;BMP_temperature;BMP_pressure;BME280_temperature;BME280_humidity;BME280_pressure;Samples;Min_cycle;Max_cycle;Signal;HPM_P1;HPM_P2
2022/09/30 00:00:16;;;;;;;14.23;7.80;;;;;;;24.46;65.17;100943.70;1766440;80;21547;-54
2022/09/30 00:02:42;;;;;;;13.05;8.30;;;;;;;24.45;65.18;100952.63;1773251;80;21040;-54
2022/09/30 00:05:09;;;;;;;22.20;8.95;;;;;;;24.45;65.24;100952.63;1762972;80;21033;-54
2022/09/30 00:07:37;;;;;;;17.73;8.40;;;;;;;24.56;64.87;100952.67;1754758;80;21038;-54
2022/09/30 00:10:06;;;;;;;16.52;8.45;;;;;;;24.44;65.24;100953.11;1716042;81;21550;-53
2022/09/30 00:12:33;;;;;;;18.67;9.00;;;;;;;24.42;65.31;100953.70;1713007;83;21027;-53
2022/09/30 00:14:59;;;;;;;22.05;8.03;;;;;;;24.41;65.30;100949.84;1766854;80;21045;-55
2022/09/30 00:17:27;;;;;;;17.85;8.45;;;;;;;24.35;65.46;100951.64;1769965;80;21037;-53
2022/09/30 00:19:54;;;;;;;18.67;8.50;;;;;;;24.31;65.59;100952.36;1745238;80;21037;-54
2022/09/30 00:22:20;;;;;;;23.60;9.20;;;;;;;24.29;65.61;100956.09;1743718;80;21023;-53
2022/09/30 00:24:47;;;;;;;15.18;8.65;;;;;;;24.37;65.31;100961.68;1750098;80;21560;-54
2022/09/30 00:27:17;;;;;;;21.75;9.18;;;;;;;24.29;65.54;100956.09;1764117;80;21042;-54
2022/09/30 00:29:42;;;;;;;21.55;8.73;;;;;;;24.27;65.58;100964.67;1760043;80;21038;-54
2022/09/30 00:32:09;;;;;;;20.60;8.73;;;;;;;24.46;65.00;100962.33;1755033;80;21051;-54
2022/09/30 00:34:36;;;;;;;16.07;8.80;;;;;;;24.36;65.26;100969.31;1755560;80;21035;-54
2022/09/30 00:37:03;;;;;;;18.23;9.05;;;;;;;24.27;65.56;100969.98;1757197;80;21491;-53
2022/09/30 00:39:30;;;;;;;16.05;8.85;;;;;;;24.24;65.62;100963.94;1752798;80;21080;-53
2022/09/30 00:41:59;;;;;;;19.30;8.78;;;;;;;24.23;65.58;100974.70;1762688;80;21109;-53
2022/09/30 00:44:53;;;;;;;18.82;8.95;;;;;;;24.22;65.57;100975.17;1772389;80;21474;-53
2022/09/30 00:47:52;;;;;;;19.60;8.63;;;;;;;24.21;65.60;100977.45;1711963;82;21557;-53
2022/09/30 00:50:30;;;;;;;20.57;8.85;;;;;;;24.19;65.60;100974.05;1691967;84;21035;-54
2022/09/30 00:53:05;;;;;;;20.90;9.75;;;;;;;24.19;65.59;100977.22;1722774;83;21521;-54
2022/09/30 00:55:43;;;;;;;19.37;9.30;;;;;;;24.18;65.55;100979.02;1614099;87;21630;-53
2022/09/30 00:58:12;;;;;;;18.85;8.38;;;;;;;24.24;65.22;100982.55;1604910;88;21028;-53
2022/09/30 01:00:39;;;;;;;17.17;8.68;;;;;;;24.16;65.48;100982.28;1612246;87;21472;-53
2022/09/30 01:03:06;;;;;;;16.65;9.15;;;;;;;24.34;64.99;100991.19;1616062;87;21043;-53
2022/09/30 01:05:33;;;;;;;15.60;8.10;;;;;;;24.17;65.51;100997.25;1611340;87;21456;-54
2022/09/30 01:08:02;;;;;;;19.90;8.70;;;;;;;24.13;65.58;100994.45;1587841;87;21088;-53
2022/09/30 01:10:29;;;;;;;15.35;8.43;;;;;;;24.13;65.65;101002.44;1590747;89;21051;-53
2022/09/30 01:12:56;;;;;;;13.35;8.25;;;;;;;24.27;65.34;101008.55;1582123;88;21147;-55
2022/09/30 01:15:27;;;;;;;14.15;7.58;;;;;;;24.38;64.99;101012.59;1605682;88;21095;-53
2022/09/30 01:17:58;;;;;;;;;;;;;;;24.39;65.01;101014.28;1612239;87;21078;-54
2022/09/30 01:20:58;;;;;;;16.52;8.68;;;;;;;24.39;64.94;101016.94;1613878;87;20418;-54
2022/09/30 01:23:51;;;;;;;12.13;7.90;;;;;;;24.37;64.95;101019.72;1608175;87;21103;-54
2022/09/30 01:26:55;;;;;;;15.50;7.87;;;;;;;24.17;65.61;101020.36;1615401;87;21098;-54
2022/09/30 01:29:52;;;;;;;17.25;9.25;;;;;;;24.10;65.82;101018.62;1615890;87;21027;-54
2022/09/30 01:32:57;;;;;;;19.62;8.50;;;;;;;24.09;65.88;101026.22;1592755;85;21085;-54
2022/09/30 01:35:47;;;;;;;17.73;9.68;;;;;;;24.09;65.89;101020.91;1656337;84;21045;-54
2022/09/30 01:38:28;;;;;;;13.58;9.03;;;;;;;24.22;65.42;101020.37;1663065;85;21101;-54
2022/09/30 01:41:00;;;;;;;17.40;8.78;;;;;;;24.28;65.13;101022.23;1655240;84;21120;-54
2022/09/30 01:43:43;;;;;;;17.73;8.65;;;;;;;24.34;64.95;101027.91;1614269;87;21160;-54
2022/09/30 01:46:28;;;;;;;16.00;8.18;;;;;;;24.33;64.96;101034.21;1619655;87;21050;-54
2022/09/30 01:49:17;;;;;;;19.92;9.25;;;;;;;24.34;64.94;101037.22;1614726;87;21036;-54
2022/09/30 01:51:58;;;;;;;19.70;9.08;;;;;;;24.34;64.94;101036.40;1663942;85;21564;-55
2022/09/30 01:54:31;;;;;;;;;;;;;;;24.33;64.91;101043.99;1622749;86;21143;-55
2022/09/30 01:57:03;;;;;;;20.25;10.10;;;;;;;24.32;64.93;101040.98;1549378;90;20111;-54
2022/09/30 01:59:38;;;;;;;16.20;8.90;;;;;;;24.32;64.97;101045.80;1567099;89;21177;-54
2022/09/30 02:02:14;;;;;;;17.07;8.85;;;;;;;24.31;64.95;101044.11;1573536;90;21153;-54
2022/09/30 02:04:45;;;;;;;16.82;8.48;;;;;;;24.32;64.96;101043.64;1582710;89;21594;-54
2022/09/30 02:07:17;;;;;;;19.55;9.90;;;;;;;24.33;64.95;101047.98;1570167;89;21140;-54
2022/09/30 02:09:57;;;;;;;22.85;8.73;;;;;;;24.33;64.92;101046.66;1512004;94;21122;-54
2022/09/30 02:12:26;;;;;;;17.62;9.13;;;;;;;24.33;64.89;101051.97;1491894;94;21116;-54
2022/09/30 02:15:06;;;;;;;14.53;7.40;;;;;;;24.32;64.85;101053.77;1509358;93;21139;-54
2022/09/30 02:17:43;;;;;;;17.73;8.00;;;;;;;24.32;64.90;101055.61;1501519;94;21580;-54
2022/09/30 02:20:17;;;;;;;14.53;8.25;;;;;;;24.31;64.87;101046.78;1497332;95;21099;-54
2022/09/30 02:22:55;;;;;;;12.90;8.10;;;;;;;24.31;64.86;101052.57;1452943;97;21138;-53
2022/09/30 02:25:35;;;;;;;14.47;8.18;;;;;;;24.30;64.84;101053.55;1452111;97;21166;-54
2022/09/30 02:28:06;;;;;;;16.17;8.28;;;;;;;24.29;64.83;101046.52;1447886;98;21655;-54
2022/09/30 02:30:35;;;;;;;13.98;7.75;;;;;;;24.28;64.88;101046.16;1458288;97;21118;-54
2022/09/30 02:33:11;;;;;;;15.48;8.55;;;;;;;24.28;64.92;101044.83;1444490;98;21097;-54
2022/09/30 02:35:42;;;;;;;17.45;9.03;;;;;;;24.28;64.91;101046.16;1472849;96;21131;-53
2022/09/30 02:38:13;;;;;;;22.87;9.98;;;;;;;24.28;64.94;101050.98;1434295;98;21104;-54
2022/09/30 02:41:01;;;;;;;14.95;7.92;;;;;;;24.28;64.96;101049.64;1451916;98;21074;-54
2022/09/30 02:43:27;;;;;;;17.10;8.40;;;;;;;24.27;64.96;101049.30;1437576;99;21128;-53
2022/09/30 02:46:11;;;;;;;15.93;8.38;;;;;;;24.27;65.06;101049.77;1440896;99;21150;-54
2022/09/30 02:49:03;;;;;;;16.30;9.18;;;;;;;24.25;65.08;101052.05;1439526;99;21174;-53
2022/09/30 02:51:45;;;;;;;16.65;8.83;;;;;;;24.25;65.15;101046.72;1444202;99;21629;-53
2022/09/30 02:54:21;;;;;;;16.80;9.23;;;;;;;24.24;65.19;101049.03;1439939;99;21159;-53
2022/09/30 02:56:54;;;;;;;20.20;8.85;;;;;;;24.24;65.22;101051.69;1440170;99;21154;-53
2022/09/30 02:59:21;;;;;;;18.02;8.70;;;;;;;24.23;65.18;101049.98;1434698;99;21628;-53
2022/09/30 03:01:48;;;;;;;18.67;9.20;;;;;;;24.24;65.23;101051.69;1453057;98;21179;-54
2022/09/30 03:04:18;;;;;;;19.40;9.85;;;;;;;24.23;65.20;101052.64;1423784;100;21197;-53
2022/09/30 03:06:45;;;;;;;18.57;9.33;;;;;;;24.23;65.25;101053.97;1448816;97;21108;-54
2022/09/30 03:09:12;;;;;;;14.55;8.50;;;;;;;24.24;65.28;101054.35;1469810;96;21160;-53
2022/09/30 03:11:38;;;;;;;19.62;9.48;;;;;;;24.23;65.28;101055.30;1467859;96;21125;-53
2022/09/30 03:14:29;;;;;;;18.12;8.95;;;;;;;24.23;65.20;101060.62;1415506;97;21821;-53
2022/09/30 03:17:22;;;;;;;22.60;10.13;;;;;;;24.23;65.20;101060.62;1476326;95;21101;-53
2022/09/30 03:20:17;;;;;;;16.80;9.13;;;;;;;24.24;65.14;101062.33;1519758;91;21075;-54
2022/09/30 03:23:04;;;;;;;20.40;8.78;;;;;;;24.24;65.10;101060.14;1529541;92;21191;-53
2022/09/30 03:25:59;;;;;;;20.57;9.55;;;;;;;24.22;65.05;101058.94;1529910;92;21059;-53
2022/09/30 03:29:05;;;;;;;17.85;8.98;;;;;;;24.22;65.05;101061.59;1509195;92;21096;-53
2022/09/30 03:31:46;;;;;;;20.72;9.23;;;;;;;24.21;65.06;101063.87;1535335;88;21081;-53
2022/09/30 03:34:21;;;;;;;19.00;8.85;;;;;;;24.20;65.10;101060.86;1637744;84;21090;-53
2022/09/30 03:37:19;;;;;;;14.63;8.30;;;;;;;24.20;65.09;101060.86;1685618;83;21042;-53
2022/09/30 03:39:58;;;;;;;17.77;8.50;;;;;;;24.20;65.10;101066.17;1688541;83;21053;-54
2022/09/30 03:42:47;;;;;;;19.48;9.30;;;;;;;24.19;65.10;101065.80;1680610;82;21184;-54
2022/09/30 03:45:23;;;;;;;18.12;8.75;;;;;;;24.19;65.10;101069.78;1607427;87;21016;-53
2022/09/30 03:47:54;;;;;;;17.05;10.15;;;;;;;24.19;65.13;101075.09;1600409;87;21072;-54
2022/09/30 03:50:24;;;;;;;19.87;9.63;;;;;;;24.19;65.17;101079.59;1622429;86;21060;-54
2022/09/30 03:52:50;;;;;;;15.63;8.75;;;;;;;24.18;65.29;101082.72;1630409;87;21049;-54
2022/09/30 03:55:18;;;;;;;18.67;8.38;;;;;;;24.19;65.30;101082.25;1633332;86;21122;-54
2022/09/30 03:57:45;;;;;;;17.00;9.05;;;;;;;24.21;65.38;101080.33;1633175;86;21037;-55
2022/09/30 04:00:13;;;;;;;14.58;9.08;;;;;;;24.23;65.45;101084.55;1622821;86;21078;-54
2022/09/30 04:02:40;;;;;;;22.35;9.80;;;;;;;24.24;65.36;101083.60;1651401;84;21519;-54
2022/09/30 04:05:08;;;;;;;17.82;9.25;;;;;;;24.25;65.40;101087.95;1634765;86;21065;-54
2022/09/30 04:07:35;;;;;;;24.92;10.35;;;;;;;24.27;65.47;101079.02;1645318;85;21604;-55
2022/09/30 04:10:02;;;;;;;13.95;8.95;;;;;;;24.28;65.57;101086.05;1619251;87;21121;-54
2022/09/30 04:12:30;;;;;;;15.70;8.65;;;;;;;24.33;65.51;101094.52;1648706;85;21650;-54
2022/09/30 04:14:57;;;;;;;17.37;10.23;;;;;;;24.35;65.59;101089.94;1660622;85;21109;-54
2022/09/30 04:17:23;;;;;;;19.15;9.88;;;;;;;24.35;65.62;101090.80;1655646;85;21055;-54
2022/09/30 04:19:50;;;;;;;16.65;10.28;;;;;;;24.36;65.75;101094.31;1666273;84;21077;-54
2022/09/30 04:22:16;;;;;;;17.35;10.38;;;;;;;24.38;65.81;101093.22;1653239;85;21061;-54
2022/09/30 04:24:44;;;;;;;17.48;10.13;;;;;;;24.47;65.68;101095.21;1662222;85;21061;-54
2022/09/30 04:27:11;;;;;;;23.75;12.00;;;;;;;24.51;65.57;101098.48;1661223;85;21033;-54
2022/09/30 04:29:38;;;;;;;22.00;11.83;;;;;;;24.52;65.55;101098.39;1651087;85;21159;-53
2022/09/30 04:32:06;;;;;;;16.77;10.85;;;;;;;24.54;65.59;101099.60;1645427;86;21550;-54
2022/09/30 04:34:32;;;;;;;14.23;9.88;;;;;;;24.55;65.61;101093.30;1652751;85;21104;-54
2022/09/30 04:36:59;;;;;;;8.88;8.03;;;;;;;24.57;65.56;101093.56;1691174;84;21101;-54
2022/09/30 04:39:26;;;;;;;12.60;9.73;;;;;;;24.59;65.59;101094.77;1659288;85;21052;-54
2022/09/30 04:41:53;;;;;;;11.00;8.65;;;;;;;24.60;65.56;101100.48;1687016;83;21121;-54
2022/09/30 04:44:20;;;;;;;15.65;10.58;;;;;;;24.60;65.58;101103.99;1744088;81;21548;-54
2022/09/30 04:46:47;;;;;;;16.82;10.38;;;;;;;24.61;65.58;101110.14;1750757;81;21032;-54
2022/09/30 04:49:13;;;;;;;11.33;9.98;;;;;;;24.62;65.55;101114.52;1713873;83;21030;-54
2022/09/30 04:51:42;;;;;;;14.20;11.10;;;;;;;24.63;65.49;101118.38;1724788;80;21576;-54
2022/09/30 04:54:08;;;;;;;15.75;11.08;;;;;;;24.64;65.54;101127.22;1728468;82;21034;-54
2022/09/30 04:56:35;;;;;;;15.30;11.18;;;;;;;24.65;65.49;101120.45;1743176;81;21076;-54
2022/09/30 04:59:02;;;;;;;12.25;10.90;;;;;;;24.67;65.49;101124.31;1747674;81;21024;-55
2022/09/30 05:01:29;;;;;;;10.10;9.10;;;;;;;24.69;65.42;101131.73;1743370;81;20994;-54
2022/09/30 05:03:56;;;;;;;9.98;8.93;;;;;;;24.70;65.39;101126.29;1735635;81;21068;-54
2022/09/30 05:06:23;;;;;;;9.13;8.33;;;;;;;24.72;65.26;101128.83;1741971;81;21087;-55
2022/09/30 05:08:51;;;;;;;8.70;7.90;;;;;;;24.72;65.18;101126.17;1747348;81;21037;-54
2022/09/30 05:11:19;;;;;;;8.88;8.08;;;;;;;24.72;65.17;101131.48;1745593;81;21080;-54
2022/09/30 05:13:47;;;;;;;8.25;7.35;;;;;;;24.75;65.16;101132.64;1766380;80;21532;-54
2022/09/30 05:16:14;;;;;;;7.83;7.12;;;;;;;24.75;65.16;101135.30;1754621;80;21045;-54
2022/09/30 05:18:44;;;;;;;7.70;6.92;;;;;;;24.78;65.09;101139.05;1756095;80;21121;-54
2022/09/30 05:21:10;;;;;;;8.08;7.30;;;;;;;24.78;64.82;101141.71;1745655;80;21512;-54
2022/09/30 05:23:37;;;;;;;8.53;7.40;;;;;;;24.79;64.73;101141.59;1765293;80;21631;-54
2022/09/30 05:26:04;;;;;;;12.03;8.00;;;;;;;24.80;64.62;101143.77;1748040;80;21001;-54
2022/09/30 05:28:31;;;;;;;13.18;9.05;;;;;;;24.80;64.59;101142.45;1743737;80;21028;-54
2022/09/30 05:31:02;;;;;;;10.28;7.60;;;;;;;24.80;64.57;101140.64;1738567;81;21017;-54
2022/09/30 05:33:29;;;;;;;9.58;7.47;;;;;;;24.81;64.40;101142.83;1743336;81;21072;-54
2022/09/30 05:36:02;;;;;;;7.70;6.90;;;;;;;24.82;64.34;101145.84;1746378;81;21074;-54
2022/09/30 05:38:29;;;;;;;7.25;6.30;;;;;;;24.82;64.15;101152.49;1758844;81;21020;-54
2022/09/30 05:40:56;;;;;;;6.00;5.40;;;;;;;24.82;63.93;101161.81;1753388;81;21465;-54
2022/09/30 05:43:23;;;;;;;7.03;5.62;;;;;;;24.81;63.92;101168.11;1741181;80;21085;-54
2022/09/30 05:45:55;;;;;;;7.03;5.20;;;;;;;24.82;63.88;101161.81;1735520;81;21085;-54
2022/09/30 05:48:24;;;;;;;5.75;5.20;;;;;;;24.82;63.75;101162.67;1686980;83;21054;-55
2022/09/30 05:50:54;;;;;;;8.20;5.42;;;;;;;24.84;63.85;101175.85;1687979;83;21106;-55
2022/09/30 05:53:20;;;;;;;6.45;5.28;;;;;;;24.85;63.92;101179.72;1654079;84;21108;-54
2022/09/30 05:55:47;;;;;;;8.40;5.62;;;;;;;24.88;64.00;101181.31;1660507;84;21605;-55
2022/09/30 05:58:14;;;;;;;9.63;5.97;;;;;;;24.91;63.97;101182.44;1641344;84;21038;-55
2022/09/30 06:00:42;;;;;;;8.93;6.60;;;;;;;24.93;64.13;101184.03;1657725;84;21007;-55
2022/09/30 06:03:10;;;;;;;6.40;5.60;;;;;;;24.98;64.12;101194.30;1646762;84;21071;-55
2022/09/30 06:05:37;;;;;;;7.90;5.70;;;;;;;24.99;63.97;101183.56;1664375;84;21092;-56
2022/09/30 06:08:05;;;;;;;8.38;6.22;;;;;;;25.03;64.24;101192.16;1674254;84;21035;-55
2022/09/30 06:10:33;;;;;;;7.83;5.40;;;;;;;25.08;64.45;101191.32;1643349;84;21078;-57
2022/09/30 06:13:04;;;;;;;5.78;5.20;;;;;;;25.13;64.43;101190.51;1646906;84;21096;-55
2022/09/30 06:15:31;;;;;;;6.22;4.95;;;;;;;25.20;64.05;101197.56;1641107;86;21059;-55
2022/09/30 06:17:58;;;;;;;5.00;4.45;;;;;;;25.25;63.63;101194.05;1624776;87;21539;-55
2022/09/30 06:20:24;;;;;;;8.38;4.35;;;;;;;25.33;63.21;101204.49;1638931;86;21169;-55
2022/09/30 06:22:51;;;;;;;4.55;3.52;;;;;;;25.38;62.20;101206.34;1632308;86;21128;-54
2022/09/30 06:25:18;;;;;;;4.30;3.05;;;;;;;25.37;60.78;101199.30;1673710;84;21568;-56
2022/09/30 06:27:46;;;;;;;5.33;3.17;;;;;;;25.39;59.93;101205.36;1673907;84;21175;-55
2022/09/30 06:30:13;;;;;;;7.95;3.75;;;;;;;25.42;59.22;101195.84;1683189;84;21089;-54
2022/09/30 06:32:41;;;;;;;10.50;3.17;;;;;;;25.49;58.49;101206.37;1674491;84;21017;-54
2022/09/30 06:35:09;;;;;;;3.10;2.72;;;;;;;25.53;57.52;101205.18;1677638;84;21085;-54
2022/09/30 06:37:36;;;;;;;5.33;3.25;;;;;;;25.60;56.89;101209.56;1676062;83;21049;-53
2022/09/30 06:40:07;;;;;;;5.78;3.62;;;;;;;25.67;56.08;101207.66;1688263;83;21042;-53
2022/09/30 06:42:35;;;;;;;5.97;2.92;;;;;;;25.77;55.61;101206.45;1691111;83;21521;-54
2022/09/30 06:45:01;;;;;;;4.42;2.50;;;;;;;25.86;55.09;101200.89;1703617;83;21112;-54
2022/09/30 06:47:28;;;;;;;2.90;2.10;;;;;;;25.96;54.23;101207.20;1689405;83;21047;-53
2022/09/30 06:49:57;;;;;;;5.10;2.25;;;;;;;26.09;52.65;101216.80;1699872;82;21121;-53
2022/09/30 06:52:24;;;;;;;3.42;2.55;;;;;;;26.16;51.87;101218.02;1756531;80;21091;-53
2022/09/30 06:54:50;;;;;;;3.95;2.35;;;;;;;26.24;51.29;101217.41;1762750;80;21502;-53
2022/09/30 06:57:21;;;;;;;5.10;2.77;;;;;;;26.29;50.98;101213.89;1757333;80;21061;-53
2022/09/30 06:59:49;;;;;;;6.47;2.72;;;;;;;26.33;50.10;101215.34;1732407;80;21010;-53
2022/09/30 07:02:15;;;;;;;8.78;3.77;;;;;;;26.34;50.06;101218.36;1737323;80;21064;-53
2022/09/30 07:04:42;;;;;;;9.83;4.47;;;;;;;26.37;51.08;101225.66;1746927;80;21086;-53
2022/09/30 07:07:09;;;;;;;11.28;4.45;;;;;;;26.40;51.96;101229.87;1738935;80;21604;-53
2022/09/30 07:09:36;;;;;;;8.28;3.95;;;;;;;26.43;52.28;101230.98;1726941;80;20949;-53
2022/09/30 07:12:05;;;;;;;7.00;4.25;;;;;;;26.45;51.96;101231.70;1739450;80;21047;-54
2022/09/30 07:14:34;;;;;;;10.05;3.70;;;;;;;26.45;51.73;101237.05;1702500;83;21046;-53
2022/09/30 07:17:03;;;;;;;9.58;3.77;;;;;;;26.46;51.40;101244.09;1724496;81;21056;-53
2022/09/30 07:19:31;;;;;;;8.83;3.50;;;;;;;26.47;50.94;101245.77;1736811;81;21009;-53
2022/09/30 07:22:26;;;;;;;6.62;2.90;;;;;;;26.50;50.81;101243.70;1713605;82;21521;-53
2022/09/30 07:24:28;;;;;;;7.17;3.55;;;;;;;26.52;50.53;101243.09;1742619;81;21218;-53
2022/09/30 07:26:54;;;;;;;8.30;2.85;;;;;;;26.54;49.79;101248.33;1747456;81;20990;-53
2022/09/30 07:29:21;;;;;;;6.55;3.27;;;;;;;26.47;49.90;101249.30;1751974;81;21017;-53
2022/09/30 07:31:49;;;;;;;11.08;3.72;;;;;;;26.57;49.64;101250.73;1757622;80;21116;-53
2022/09/30 07:34:15;;;;;;;6.65;3.22;;;;;;;26.60;49.45;101257.17;1750435;80;21035;-53
2022/09/30 07:36:42;;;;;;;10.50;3.87;;;;;;;26.61;49.07;101262.86;1733678;80;21069;-53
2022/09/30 07:39:09;;;;;;;9.10;3.47;;;;;;;26.62;48.72;101267.23;1777119;80;20995;-53
2022/09/30 07:41:37;;;;;;;5.37;2.70;;;;;;;26.55;48.77;101271.36;1692262;83;21537;-52
2022/09/30 07:44:05;;;;;;;10.05;3.15;;;;;;;26.54;49.03;101268.34;1743878;80;21009;-52
2022/09/30 07:46:32;;;;;;;7.42;3.10;;;;;;;26.65;48.98;101275.50;1771934;79;21010;-52
2022/09/30 07:49:02;;;;;;;8.43;3.65;;;;;;;26.70;49.11;101279.48;1742837;80;21057;-53
2022/09/30 07:51:33;;;;;;;6.83;3.08;;;;;;;26.73;49.20;101271.23;1759685;80;21039;-53
2022/09/30 07:54:04;;;;;;;6.55;3.02;;;;;;;26.76;49.44;101275.02;1653487;84;21222;-53
2022/09/30 07:56:31;;;;;;;9.48;3.20;;;;;;;26.79;49.61;101270.74;1613153;87;20994;-53
2022/09/30 07:59:00;;;;;;;4.95;3.30;;;;;;;26.81;49.23;101266.12;1625933;86;21141;-54
2022/09/30 08:01:30;;;;;;;7.12;3.50;;;;;;;26.80;49.21;101264.45;1633660;86;21048;-54
2022/09/30 08:04:00;;;;;;;6.35;3.47;;;;;;;26.82;49.70;101266.50;1626505;86;21061;-54
2022/09/30 08:06:27;;;;;;;7.33;3.37;;;;;;;26.77;50.18;101275.36;1637768;85;21043;-53
2022/09/30 08:08:55;;;;;;;7.55;3.00;;;;;;;26.75;50.35;101273.30;1636190;86;21085;-53
2022/09/30 08:11:22;;;;;;;7.03;3.62;;;;;;;26.74;50.02;101267.61;1626734;85;21569;-53
2022/09/30 08:13:51;;;;;;;7.28;3.35;;;;;;;26.83;49.44;101274.86;1621958;87;21119;-53
2022/09/30 08:16:18;;;;;;;8.85;3.77;;;;;;;26.88;49.21;101278.02;1634110;85;21052;-53
2022/09/30 08:18:45;;;;;;;8.10;3.62;;;;;;;26.92;48.87;101284.80;1625176;85;21517;-53
2022/09/30 08:21:12;;;;;;;6.65;3.65;;;;;;;26.95;49.67;101287.24;1621946;87;21105;-53
2022/09/30 08:23:40;;;;;;;8.40;3.50;;;;;;;26.96;49.18;101290.73;1631659;86;21053;-53
2022/09/30 08:26:10;;;;;;;5.12;3.25;;;;;;;26.95;49.26;101289.05;1624259;87;21094;-53
2022/09/30 08:28:39;;;;;;;4.92;2.98;;;;;;;26.93;49.11;101289.67;1572587;89;21108;-53
2022/09/30 08:31:12;;;;;;;5.10;3.10;;;;;;;26.91;48.94;101292.47;1574340;90;21067;-53
2022/09/30 08:33:39;;;;;;;7.90;3.42;;;;;;;26.90;48.65;101292.09;1571592;89;21150;-53
2022/09/30 08:36:15;;;;;;;7.00;3.00;;;;;;;26.86;48.78;101302.66;1551577;90;21170;-53
2022/09/30 08:38:42;;;;;;;6.35;3.15;;;;;;;26.92;48.72;101294.16;1559495;90;21101;-53
2022/09/30 08:41:40;;;;;;;7.17;3.00;;;;;;;26.95;48.62;101293.06;1535591;91;21543;-53
2022/09/30 08:44:36;;;;;;;4.97;2.55;;;;;;;26.90;48.71;101301.44;1575985;89;21638;-54
2022/09/30 08:47:26;;;;;;;10.50;3.20;;;;;;;26.97;48.35;101300.46;1575684;90;22409;-53
2022/09/30 08:50:27;;;;;;;7.20;3.15;;;;;;;26.99;48.40;101315.39;1564474;90;21763;-53
2022/09/30 08:52:57;;;;;;;9.95;3.50;;;;;;;27.01;48.86;101312.59;1592860;85;21138;-54
2022/09/30 08:55:28;;;;;;;5.43;3.10;;;;;;;27.01;48.59;101301.43;1614117;87;21552;-53
2022/09/30 08:57:54;;;;;;;4.37;3.10;;;;;;;27.02;48.25;101307.11;1644753;85;21064;-53
2022/09/30 09:00:21;;;;;;;7.62;3.85;;;;;;;27.04;48.29;101309.17;1661401;84;21109;-53
2022/09/30 09:02:55;;;;;;;5.10;3.17;;;;;;;26.96;48.38;101314.30;1626722;87;21067;-53
2022/09/30 09:05:48;;;;;;;7.97;3.37;;;;;;;27.07;48.08;101316.95;1619321;87;21102;-52
2022/09/30 09:08:29;;;;;;;7.62;3.10;;;;;;;27.09;48.10;101323.50;1632840;87;21186;-54
2022/09/30 09:11:14;;;;;;;6.08;2.95;;;;;;;27.10;48.33;101329.22;1632327;86;21049;-52
2022/09/30 09:14:03;;;;;;;6.83;3.17;;;;;;;27.08;48.08;101333.33;1574118;89;21185;-53
2022/09/30 09:17:05;;;;;;;4.50;3.10;;;;;;;27.05;48.02;101341.61;1571496;89;21078;-53
2022/09/30 09:19:39;;;;;;;6.37;3.60;;;;;;;27.01;48.28;101344.16;1589170;89;21102;-54
2022/09/30 09:22:07;;;;;;;6.80;4.03;;;;;;;26.98;48.09;101348.89;1597733;88;21073;-53
2022/09/30 09:24:44;;;;;;;5.62;4.15;;;;;;;26.94;48.14;101345.63;1603879;88;21042;-53
2022/09/30 09:27:47;;;;;;;8.40;3.92;;;;;;;26.92;47.82;101348.91;1598646;88;21167;-53
2022/09/30 09:30:14;;;;;;;;;;;;;;;26.87;48.01;101352.45;1616936;88;21118;-53
2022/09/30 09:32:42;;;;;;;9.40;4.50;;;;;;;26.86;48.54;101354.73;1591509;88;20128;-52
2022/09/30 09:35:15;;;;;;;7.22;4.40;;;;;;;26.86;48.49;101356.55;1599362;88;21129;-52
2022/09/30 09:41:05;;;;;;;8.45;5.15;;;;;;;26.88;48.58;101367.48;1567761;89;21128;-53
2022/09/30 09:43:52;;;;;;;7.97;5.53;;;;;;;26.91;48.83;101367.25;1564018;89;21675;-52
2022/09/30 09:46:27;;;;;;;9.13;5.20;;;;;;;26.95;48.71;101364.70;1492926;94;21650;-52
2022/09/30 09:49:22;;;;;;;8.78;5.47;;;;;;;26.99;48.63;101357.27;1477081;95;21204;-53
2022/09/30 09:52:16;;;;;;;11.75;5.83;;;;;;;27.00;48.28;101354.47;1549275;90;21122;-53
2022/09/30 09:54:45;;;;;;;13.98;6.53;;;;;;;27.02;48.35;101357.87;1537178;91;21084;-52
2022/09/30 09:57:15;;;;;;;8.10;6.00;;;;;;;27.04;48.08;101360.41;1491785;93;21104;-53
2022/09/30 10:03:15;;;;;;;11.00;6.90;;;;;;;27.08;48.13;101366.72;1500611;94;21604;-53
2022/09/30 10:05:41;;;;;;;10.85;7.67;;;;;;;27.10;47.87;101356.76;1501271;94;21128;-53
2022/09/30 10:08:17;;;;;;;12.05;6.75;;;;;;;27.05;47.73;101360.30;1499402;94;21104;-53
2022/09/30 10:10:53;;;;;;;11.95;7.05;;;;;;;27.13;47.39;101344.50;1494443;94;21636;-53
2022/09/30 10:13:26;;;;;;;11.35;7.05;;;;;;;27.18;47.41;101347.62;1502250;95;21300;-53
2022/09/30 10:15:55;;;;;;;11.55;6.50;;;;;;;27.22;47.30;101355.75;1480778;94;21164;-55
2022/09/30 10:18:35;;;;;;;9.33;6.37;;;;;;;27.25;47.61;101347.98;1524630;93;21130;-53
2022/09/30 10:21:20;;;;;;;12.80;6.47;;;;;;;27.27;47.76;101346.89;1517265;92;21859;-53
2022/09/30 10:23:47;;;;;;;7.75;5.95;;;;;;;27.27;47.85;101343.36;1436135;98;21221;-52
2022/09/30 10:26:20;;;;;;;8.73;5.60;;;;;;;27.18;48.43;101346.30;1438837;97;21692;-53
2022/09/30 10:29:02;;;;;;;7.22;5.28;;;;;;;27.24;48.23;101352.47;1426043;99;21130;-53
2022/09/30 10:31:39;;;;;;;11.70;4.92;;;;;;;27.25;48.42;101363.53;1422630;99;21200;-53
2022/09/30 10:34:24;;;;;;;8.93;5.20;;;;;;;27.18;48.74;101358.83;1407204;100;21210;-52
2022/09/30 10:36:51;;;;;;;11.00;5.50;;;;;;;27.18;49.02;101370.34;1413945;100;21183;-53
2022/09/30 10:39:26;;;;;;;9.83;5.28;;;;;;;27.23;49.22;101372.17;1401995;99;21205;-52
2022/09/30 10:44:58;;;;;;;12.18;5.72;;;;;;;27.41;48.61;101367.67;1455265;95;21619;-53
2022/09/30 10:47:26;;;;;;;13.38;6.35;;;;;;;27.41;48.91;101366.33;1459699;97;21093;-53
2022/09/30 10:50:04;;;;;;;10.58;6.05;;;;;;;27.42;49.04;101373.36;1460677;96;21691;-53
2022/09/30 10:52:43;;;;;;;10.53;7.05;;;;;;;27.46;48.93;101374.80;1448403;96;21111;-53
2022/09/30 10:55:37;;;;;;;11.88;7.40;;;;;;;27.50;48.51;101376.25;1488930;94;21049;-53
2022/09/30 10:58:47;;;;;;;12.80;8.35;;;;;;;27.49;48.30;101370.55;1461523;97;21196;-53
2022/09/30 11:01:31;;;;;;;13.90;9.28;;;;;;;27.46;48.59;101370.80;1519070;92;21178;-54
2022/09/30 11:04:10;;;;;;;15.93;9.43;;;;;;;27.41;48.81;101370.34;1542032;91;21215;-52
2022/09/30 11:06:39;;;;;;;15.63;11.97;;;;;;;27.36;48.97;101366.22;1542777;91;21146;-53
2022/09/30 11:09:34;;;;;;;16.95;12.50;;;;;;;27.33;49.03;101367.77;1544991;92;21674;-53
2022/09/30 11:12:24;;;;;;;23.87;12.50;;;;;;;27.33;49.18;101370.44;1514246;92;21576;-52
2022/09/30 11:15:14;;;;;;;21.60;12.88;;;;;;;27.35;49.20;101372.53;1515685;92;21149;-53
2022/09/30 11:18:01;;;;;;;15.60;11.30;;;;;;;27.26;49.66;101385.30;1508037;94;21093;-53
2022/09/30 11:20:35;;;;;;;14.87;10.93;;;;;;;27.24;49.87;101388.55;1497078;94;21095;-53
2022/09/30 11:23:10;;;;;;;15.70;9.60;;;;;;;27.27;50.19;101378.95;1483722;94;21599;-53
2022/09/30 11:25:51;;;;;;;13.13;8.15;;;;;;;27.36;50.10;101386.27;1485859;94;21112;-53
2022/09/30 11:28:38;;;;;;;14.65;8.55;;;;;;;27.48;49.48;101384.88;1493663;94;21141;-54
2022/09/30 11:31:13;;;;;;;10.35;7.58;;;;;;;27.55;49.19;101384.75;1494180;95;21129;-53
2022/09/30 11:33:48;;;;;;;11.03;7.30;;;;;;;27.57;48.85;101396.17;1489193;93;21613;-53
2022/09/30 11:36:23;;;;;;;10.85;7.00;;;;;;;27.58;48.68;101384.48;1460672;95;21186;-53
2022/09/30 11:39:04;;;;;;;9.38;6.92;;;;;;;27.59;48.56;101391.54;1478472;94;21111;-53
2022/09/30 11:41:35;;;;;;;14.65;6.92;;;;;;;27.58;48.60;101393.84;1491504;94;22570;-52
2022/09/30 11:44:36;;;;;;;13.75;7.30;;;;;;;27.57;48.56;101385.47;1491284;95;21090;-53
2022/09/30 11:47:30;;;;;;;8.13;6.45;;;;;;;27.55;48.56;101390.95;1454270;95;21067;-53
2022/09/30 11:50:45;;;;;;;10.82;6.80;;;;;;;27.54;48.69;101389.24;1455226;97;21200;-53
2022/09/30 11:53:46;;;;;;;9.23;5.90;;;;;;;27.55;48.75;101391.44;1423318;99;21186;-52
2022/09/30 11:56:43;;;;;;;9.05;6.22;;;;;;;27.57;48.78;101384.99;1463233;96;21691;-52
2022/09/30 11:59:25;;;;;;;12.33;5.90;;;;;;;27.60;48.76;101381.19;1466502;97;21242;-53